Terminal Aerodrome Forecast
Issued by NWS

Home | Current Version | Previous Version | Text Only | Print | Product List | Glossary Off
Versions: 1 2 3 4 5 6 7 8 9 10 11 12 13 14 15 16 17 18

000
FTUS43 KMPX 170500
TAFRWF
TAF
KRWF 170523Z 1706/1806 17005KT P6SM BKN050
     FM170900 VRB03KT P6SM FEW060
     FM171600 01005KT P6SM SKC
     FM180100 07003KT P6SM SKC=

USA.gov is the U.S. government's official web portal to all federal, state and local government web resources and services.